createdAt,value
2023-02-06T00:00:38.663Z,12.85
2023-02-06T00:03:05.732Z,12.75
2023-02-06T00:05:32.483Z,12.55
2023-02-06T00:07:59.191Z,12.43
2023-02-06T00:10:25.814Z,11.95
2023-02-06T00:12:52.445Z,12.27
2023-02-06T00:15:19.096Z,11.93
2023-02-06T00:17:45.753Z,12.45
2023-02-06T00:20:12.794Z,10.70
2023-02-06T00:22:39.556Z,11.60
2023-02-06T00:25:06.679Z,13.10
2023-02-06T00:27:33.523Z,13.55
2023-02-06T00:30:00.175Z,14.38
2023-02-06T00:32:26.845Z,14.77
2023-02-06T00:34:53.560Z,14.48
2023-02-06T00:37:20.162Z,15.18
2023-02-06T00:39:46.790Z,14.85
2023-02-06T00:42:14.451Z,16.15
2023-02-06T00:44:41.122Z,15.00
2023-02-06T00:47:07.751Z,15.50
2023-02-06T00:49:34.458Z,16.52
2023-02-06T00:52:01.420Z,15.85
2023-02-06T00:54:28.112Z,16.35
2023-02-06T00:56:54.742Z,16.83
2023-02-06T00:59:21.366Z,15.55
2023-02-06T01:01:48.001Z,15.93
2023-02-06T01:04:14.670Z,15.75
2023-02-06T01:06:41.279Z,17.10
2023-02-06T01:09:07.917Z,17.27
2023-02-06T01:11:34.945Z,16.60
2023-02-06T01:14:01.895Z,16.08
2023-02-06T01:16:28.570Z,16.90
2023-02-06T01:18:55.403Z,16.13
2023-02-06T01:21:23.702Z,15.32
2023-02-06T01:23:51.892Z,16.27
2023-02-06T01:26:20.043Z,18.13
2023-02-06T01:28:47.363Z,15.95
2023-02-06T01:31:21.445Z,15.40
2023-02-06T01:36:15.230Z,15.38
2023-02-06T01:38:42.191Z,15.38
2023-02-06T01:41:09.055Z,14.85
2023-02-06T01:43:37.330Z,14.73
2023-02-06T01:46:04.126Z,15.63
2023-02-06T01:48:35.977Z,14.98
2023-02-06T01:51:03.110Z,15.15
2023-02-06T01:53:29.775Z,14.90
2023-02-06T01:55:56.505Z,14.88
2023-02-06T01:58:36.328Z,14.02
2023-02-06T02:01:03.148Z,13.20
2023-02-06T02:03:30.979Z,14.05
2023-02-06T02:06:00.245Z,14.45
2023-02-06T02:08:31.498Z,12.85
2023-02-06T02:10:59.752Z,13.32
2023-02-06T02:13:26.410Z,11.98
2023-02-06T02:16:02.809Z,12.75
2023-02-06T02:19:12.974Z,11.52
2023-02-06T02:22:07.057Z,11.48
2023-02-06T02:25:06.004Z,11.67
2023-02-06T02:28:13.195Z,10.88
2023-02-06T02:31:00.947Z,10.32
2023-02-06T02:33:52.346Z,10.93
2023-02-06T02:36:40.617Z,11.43
2023-02-06T02:39:31.649Z,10.63
2023-02-06T02:42:18.218Z,10.27
2023-02-06T02:44:55.680Z,9.85
2023-02-06T02:47:26.663Z,9.10
2023-02-06T02:49:53.342Z,8.18
2023-02-06T02:52:19.970Z,8.88
2023-02-06T02:54:46.597Z,9.75
2023-02-06T02:57:18.596Z,9.30
2023-02-06T02:59:46.085Z,9.38
2023-02-06T03:02:18.877Z,9.70
2023-02-06T03:04:51.014Z,9.07
2023-02-06T03:07:51.490Z,8.38
2023-02-06T03:10:36.480Z,8.73
2023-02-06T03:13:04.620Z,8.98
2023-02-06T03:15:35.128Z,8.05
2023-02-06T03:18:11.619Z,8.45
2023-02-06T03:20:41.131Z,9.15
2023-02-06T03:23:07.855Z,8.15
2023-02-06T03:25:42.405Z,8.85
2023-02-06T03:28:19.269Z,9.77
2023-02-06T03:30:48.586Z,9.93
2023-02-06T03:33:16.094Z,10.07
2023-02-06T03:35:42.760Z,10.57
2023-02-06T03:38:09.733Z,10.88
2023-02-06T03:40:36.389Z,11.02
2023-02-06T03:43:03.452Z,10.57
2023-02-06T03:45:34.739Z,11.38
2023-02-06T03:48:03.810Z,11.40
2023-02-06T03:50:31.219Z,10.82
2023-02-06T03:52:58.245Z,11.93
2023-02-06T03:55:25.036Z,11.23
2023-02-06T03:57:53.922Z,11.20
2023-02-06T04:00:20.818Z,12.07
2023-02-06T04:02:47.601Z,11.75
2023-02-06T04:05:15.971Z,12.88
2023-02-06T04:07:42.643Z,11.43
2023-02-06T04:10:09.544Z,12.65
2023-02-06T04:12:36.261Z,12.70
2023-02-06T04:15:03.201Z,13.35
2023-02-06T04:17:46.265Z,13.60
2023-02-06T04:20:16.643Z,12.35
2023-02-06T04:22:43.278Z,13.63
2023-02-06T04:25:09.912Z,13.45
2023-02-06T04:27:37.030Z,14.00
2023-02-06T04:30:04.446Z,13.25
2023-02-06T04:32:31.096Z,13.38
2023-02-06T04:34:57.760Z,13.38
2023-02-06T04:37:24.395Z,13.00
2023-02-06T04:39:51.044Z,13.13
2023-02-06T04:42:17.687Z,13.30
2023-02-06T04:44:45.334Z,13.02
2023-02-06T04:47:11.976Z,12.90
2023-02-06T04:49:38.608Z,12.65
2023-02-06T04:52:05.231Z,12.43
2023-02-06T04:54:32.773Z,12.75
2023-02-06T04:56:59.474Z,12.18
2023-02-06T04:59:26.248Z,11.35
2023-02-06T05:01:58.303Z,10.93
2023-02-06T05:04:24.938Z,11.10
2023-02-06T05:06:51.606Z,10.95
2023-02-06T05:09:18.268Z,11.30
2023-02-06T05:11:44.899Z,11.10
2023-02-06T05:14:11.526Z,10.60
2023-02-06T05:16:38.257Z,10.85
2023-02-06T05:19:04.941Z,11.40
2023-02-06T05:21:31.610Z,10.05
2023-02-06T05:23:58.270Z,11.73
2023-02-06T05:26:24.906Z,11.60
2023-02-06T05:28:51.693Z,10.35
2023-02-06T05:31:20.292Z,9.75
2023-02-06T05:33:49.855Z,10.77
2023-02-06T05:36:17.898Z,11.30
2023-02-06T05:38:44.523Z,10.95
2023-02-06T05:41:11.214Z,9.98
2023-02-06T05:43:38.219Z,9.90
2023-02-06T05:46:05.003Z,11.77
2023-02-06T05:48:34.382Z,10.60
2023-02-06T05:51:01.275Z,11.43
2023-02-06T05:53:27.975Z,11.52
2023-02-06T05:55:54.619Z,10.88
2023-02-06T05:58:21.248Z,11.90
2023-02-06T06:00:47.891Z,11.13
2023-02-06T06:03:14.526Z,11.48
2023-02-06T06:05:41.189Z,11.70
2023-02-06T06:08:07.812Z,11.63
2023-02-06T06:10:34.500Z,11.98
2023-02-06T06:13:01.098Z,11.90
2023-02-06T06:15:27.828Z,11.00
2023-02-06T06:17:54.467Z,11.50
2023-02-06T06:20:21.092Z,12.18
2023-02-06T06:22:47.725Z,11.55
2023-02-06T06:25:14.376Z,10.23
2023-02-06T06:27:42.285Z,14.30
2023-02-06T06:30:10.161Z,12.48
2023-02-06T06:32:36.879Z,11.90
2023-02-06T06:35:03.642Z,13.27
2023-02-06T06:37:30.502Z,17.92
2023-02-06T06:39:57.393Z,13.02
2023-02-06T06:42:24.015Z,11.90
2023-02-06T06:44:50.645Z,12.65
2023-02-06T06:47:17.249Z,13.40
2023-02-06T06:49:43.964Z,17.85
2023-02-06T06:52:23.082Z,23.98
2023-02-06T06:54:52.458Z,34.65
2023-02-06T06:57:20.271Z,19.95
2023-02-06T06:59:47.143Z,14.00
2023-02-06T07:02:13.906Z,14.90
2023-02-06T07:04:40.532Z,12.30
2023-02-06T07:07:07.311Z,12.32
2023-02-06T07:09:34.068Z,12.02
2023-02-06T07:12:00.714Z,18.48
2023-02-06T07:14:27.373Z,11.48
2023-02-06T07:16:54.034Z,11.88
2023-02-06T07:19:21.401Z,15.85
2023-02-06T07:21:48.043Z,14.18
2023-02-06T07:24:14.665Z,12.23
2023-02-06T07:26:41.591Z,13.77
2023-02-06T07:29:08.304Z,15.00
2023-02-06T07:31:35.083Z,16.10
2023-02-06T07:34:02.363Z,10.93
2023-02-06T07:36:29.092Z,14.27
2023-02-06T07:38:55.801Z,12.65
2023-02-06T07:41:22.459Z,12.20
2023-02-06T07:43:49.092Z,11.68
2023-02-06T07:46:15.879Z,11.57
2023-02-06T07:48:42.565Z,11.38
2023-02-06T07:51:09.455Z,12.40
2023-02-06T07:53:36.175Z,9.70
2023-02-06T07:56:02.966Z,12.30
2023-02-06T07:58:29.576Z,11.50
2023-02-06T08:00:56.254Z,10.27
2023-02-06T08:03:22.959Z,10.90
2023-02-06T08:05:49.642Z,10.23
2023-02-06T08:08:16.317Z,9.43
2023-02-06T08:10:43.001Z,14.18
2023-02-06T08:13:09.618Z,16.35
2023-02-06T08:15:36.482Z,12.98
2023-02-06T08:18:03.272Z,12.50
2023-02-06T08:20:29.889Z,12.77
2023-02-06T08:22:57.244Z,12.27
2023-02-06T08:25:24.496Z,12.77
2023-02-06T08:27:55.048Z,9.57
2023-02-06T08:30:22.474Z,12.25
2023-02-06T08:32:49.272Z,11.20
2023-02-06T08:35:16.165Z,11.15
2023-02-06T08:37:42.814Z,10.98
2023-02-06T08:40:10.092Z,9.93
2023-02-06T08:42:36.724Z,11.30
2023-02-06T08:45:03.528Z,9.48
2023-02-06T08:47:31.019Z,10.20
2023-02-06T08:49:57.650Z,11.13
2023-02-06T08:52:24.285Z,10.80
2023-02-06T08:54:52.055Z,9.27
2023-02-06T08:57:18.709Z,8.27
2023-02-06T08:59:45.362Z,9.32
2023-02-06T09:02:12.102Z,9.45
2023-02-06T09:04:39.052Z,9.70
2023-02-06T09:07:05.973Z,8.00
2023-02-06T09:09:32.598Z,9.30
2023-02-06T09:12:03.739Z,8.90
2023-02-06T09:14:30.654Z,8.15
2023-02-06T09:16:58.180Z,8.95
2023-02-06T09:19:25.661Z,8.27
2023-02-06T09:21:52.292Z,6.68
2023-02-06T09:24:18.944Z,6.40
2023-02-06T09:26:58.939Z,7.00
2023-02-06T09:29:26.420Z,7.72
2023-02-06T09:31:53.040Z,7.72
2023-02-06T09:34:19.719Z,7.43
2023-02-06T09:36:46.404Z,7.32
2023-02-06T09:39:14.043Z,7.65
2023-02-06T09:41:43.171Z,7.07
2023-02-06T09:44:18.607Z,8.93
2023-02-06T09:46:48.277Z,8.30
2023-02-06T09:49:18.541Z,8.25
2023-02-06T09:52:04.152Z,8.20
2023-02-06T09:54:56.748Z,7.15
2023-02-06T09:57:48.695Z,7.90
2023-02-06T10:00:53.786Z,7.78
2023-02-06T10:03:31.181Z,7.32
2023-02-06T10:06:25.238Z,6.72
2023-02-06T10:09:02.248Z,6.72
2023-02-06T10:11:48.278Z,8.48
2023-02-06T10:14:19.220Z,6.60
2023-02-06T10:16:48.404Z,7.05
2023-02-06T10:19:21.691Z,6.40
2023-02-06T10:22:01.773Z,6.63
2023-02-06T10:24:42.037Z,6.30
2023-02-06T10:27:12.159Z,7.68
2023-02-06T10:29:40.431Z,7.55
2023-02-06T10:32:26.467Z,7.80
2023-02-06T10:34:56.153Z,6.68
2023-02-06T10:37:32.228Z,7.85
2023-02-06T10:40:22.892Z,6.72
2023-02-06T10:43:10.540Z,7.13
2023-02-06T10:45:46.898Z,7.53
2023-02-06T10:48:23.156Z,7.13
2023-02-06T10:51:00.273Z,7.32
2023-02-06T10:53:28.864Z,7.45
2023-02-06T10:55:57.868Z,6.65
2023-02-06T10:58:35.311Z,9.25
2023-02-06T11:01:02.077Z,7.85
2023-02-06T11:03:31.969Z,7.95
2023-02-06T11:05:59.438Z,7.85
2023-02-06T11:08:29.836Z,7.97
2023-02-06T11:10:56.598Z,7.78
2023-02-06T11:13:35.755Z,8.00
2023-02-06T11:16:04.763Z,7.53
2023-02-06T11:18:35.808Z,8.15
2023-02-06T11:21:03.291Z,7.30
2023-02-06T11:23:30.774Z,7.47
2023-02-06T11:26:14.425Z,8.27
2023-02-06T11:28:52.615Z,8.40
2023-02-06T11:31:45.126Z,7.82
2023-02-06T11:34:27.089Z,7.00
2023-02-06T11:37:33.020Z,7.25
2023-02-06T11:40:20.703Z,7.05
2023-02-06T11:42:49.677Z,7.60
2023-02-06T11:45:26.279Z,6.97
2023-02-06T11:47:53.007Z,7.30
2023-02-06T11:50:28.404Z,7.53
2023-02-06T11:53:10.223Z,8.63
2023-02-06T11:55:37.987Z,7.13
2023-02-06T11:58:13.868Z,8.25
2023-02-06T12:00:41.993Z,7.65
2023-02-06T12:03:30.934Z,8.10
2023-02-06T12:06:17.626Z,8.40
2023-02-06T12:08:49.622Z,7.40
2023-02-06T12:11:20.936Z,7.93
2023-02-06T12:13:52.384Z,7.68
2023-02-06T12:16:19.085Z,7.55
2023-02-06T12:18:48.448Z,6.28
2023-02-06T12:21:26.990Z,5.15
2023-02-06T12:23:59.704Z,5.22
2023-02-06T12:26:29.259Z,5.57
2023-02-06T12:29:13.097Z,5.30
2023-02-06T12:31:53.929Z,4.68
2023-02-06T12:34:23.466Z,5.22
2023-02-06T12:37:00.210Z,4.88
2023-02-06T12:39:31.266Z,4.60
2023-02-06T12:42:03.889Z,5.80
2023-02-06T12:44:41.588Z,5.30
2023-02-06T12:47:37.389Z,5.40
2023-02-06T12:50:18.602Z,4.90
2023-02-06T12:52:50.285Z,4.55
2023-02-06T12:55:24.860Z,5.25
2023-02-06T12:57:51.591Z,5.65
2023-02-06T13:00:42.429Z,4.25
2023-02-06T13:03:31.411Z,3.53
2023-02-06T13:06:04.349Z,3.80
2023-02-06T13:08:40.637Z,3.53
2023-02-06T13:11:09.756Z,3.55
2023-02-06T13:13:38.493Z,3.33
2023-02-06T13:16:06.157Z,4.03
2023-02-06T13:18:42.079Z,3.90
2023-02-06T13:21:21.503Z,4.05
2023-02-06T13:24:12.114Z,3.45
2023-02-06T13:26:48.790Z,3.97
2023-02-06T13:29:23.358Z,4.22
2023-02-06T13:31:50.006Z,3.88
2023-02-06T13:34:17.200Z,3.83
2023-02-06T13:36:50.182Z,3.55
2023-02-06T13:39:31.161Z,3.60
2023-02-06T13:42:01.011Z,4.82
2023-02-06T13:44:28.484Z,4.18
2023-02-06T13:47:20.243Z,3.97
2023-02-06T13:50:24.397Z,3.75
2023-02-06T13:53:12.158Z,4.00
2023-02-06T13:55:55.023Z,4.05
2023-02-06T13:58:44.704Z,3.75
2023-02-06T14:01:17.988Z,2.60
2023-02-06T14:03:49.378Z,2.00
2023-02-06T14:06:20.431Z,4.60
2023-02-06T14:09:30.487Z,3.25
2023-02-06T14:12:38.740Z,4.40
2023-02-06T14:15:17.875Z,2.55
2023-02-06T14:17:51.659Z,2.42
2023-02-06T14:20:39.244Z,2.72
2023-02-06T14:23:25.570Z,3.03
2023-02-06T14:26:29.913Z,3.25
2023-02-06T14:29:35.101Z,2.77
2023-02-06T14:34:52.075Z,3.45
2023-02-06T14:37:40.818Z,4.25
2023-02-06T14:40:34.812Z,6.18
2023-02-06T14:43:06.072Z,5.07
2023-02-06T14:45:42.337Z,6.30
2023-02-06T14:48:27.419Z,6.15
2023-02-06T14:50:56.575Z,7.25
2023-02-06T14:53:30.244Z,6.15
2023-02-06T14:56:29.344Z,5.97
2023-02-06T14:58:56.074Z,6.28
2023-02-06T15:01:26.921Z,6.40
2023-02-06T15:04:11.390Z,6.35
2023-02-06T15:09:06.288Z,6.78
2023-02-06T15:11:33.154Z,6.60
2023-02-06T15:14:04.897Z,6.18
2023-02-06T15:16:41.237Z,6.22
2023-02-06T15:19:18.761Z,7.03
2023-02-06T15:21:45.452Z,6.63
2023-02-06T15:24:26.123Z,6.97
2023-02-06T15:27:07.678Z,6.82
2023-02-06T15:29:34.335Z,6.70
2023-02-06T15:32:24.999Z,7.25
2023-02-06T15:34:51.683Z,7.20
2023-02-06T15:37:31.703Z,7.13
2023-02-06T15:40:07.712Z,5.93
2023-02-06T15:42:34.337Z,6.70
2023-02-06T15:45:01.232Z,6.18
2023-02-06T15:47:27.982Z,5.95
2023-02-06T15:49:55.896Z,5.22
2023-02-06T15:52:34.570Z,5.47
2023-02-06T15:55:01.489Z,5.10
2023-02-06T15:57:35.178Z,8.93
2023-02-06T16:00:02.213Z,8.50
2023-02-06T16:02:34.356Z,7.43
2023-02-06T16:05:01.357Z,6.15
2023-02-06T16:07:31.995Z,6.72
2023-02-06T16:10:04.514Z,6.57
2023-02-06T16:12:35.162Z,6.57
2023-02-06T16:15:02.752Z,6.25
2023-02-06T16:17:34.718Z,7.10
2023-02-06T16:20:24.490Z,6.75
2023-02-06T16:22:56.936Z,7.35
2023-02-06T16:25:28.867Z,7.30
2023-02-06T16:27:55.645Z,6.05
2023-02-06T16:30:29.375Z,6.60
2023-02-06T16:32:58.668Z,6.13
2023-02-06T16:35:25.412Z,7.97
2023-02-06T16:37:53.200Z,9.07
2023-02-06T16:40:20.070Z,7.13
2023-02-06T16:42:47.584Z,7.05
2023-02-06T16:45:23.225Z,6.65
2023-02-06T16:47:50.085Z,6.47
2023-02-06T16:50:18.188Z,5.95
2023-02-06T16:52:50.061Z,5.82
2023-02-06T16:55:23.475Z,5.07
2023-02-06T16:57:52.593Z,5.93
2023-02-06T17:00:21.176Z,4.95
2023-02-06T17:02:48.285Z,6.55
2023-02-06T17:05:15.126Z,5.60
2023-02-06T17:07:41.759Z,5.93
2023-02-06T17:10:08.962Z,6.15
2023-02-06T17:12:35.895Z,5.68
2023-02-06T17:15:02.515Z,6.40
2023-02-06T17:17:29.176Z,5.90
2023-02-06T17:19:55.821Z,5.40
2023-02-06T17:22:22.449Z,5.70
2023-02-06T17:24:49.207Z,7.75
2023-02-06T17:27:20.772Z,6.63
2023-02-06T17:29:52.943Z,6.22
2023-02-06T17:32:22.402Z,6.28
2023-02-06T17:34:50.477Z,6.50
2023-02-06T17:37:20.834Z,5.75
2023-02-06T17:39:50.140Z,6.18
2023-02-06T17:42:16.942Z,5.85
2023-02-06T17:44:44.183Z,6.35
2023-02-06T17:47:10.958Z,6.43
2023-02-06T17:49:37.628Z,5.55
2023-02-06T17:52:04.422Z,5.97
2023-02-06T17:54:31.068Z,9.60
2023-02-06T17:56:57.700Z,6.18
2023-02-06T17:59:24.473Z,7.53
2023-02-06T18:01:51.187Z,8.10
2023-02-06T18:04:20.222Z,6.40
2023-02-06T18:06:47.484Z,6.60
2023-02-06T18:09:14.257Z,6.40
2023-02-06T18:11:40.863Z,6.47
2023-02-06T18:14:07.484Z,6.72
2023-02-06T18:16:34.289Z,9.20
2023-02-06T18:19:01.170Z,9.35
2023-02-06T18:21:29.451Z,8.57
2023-02-06T18:23:56.084Z,8.77
2023-02-06T18:26:24.319Z,8.23
2023-02-06T18:28:51.110Z,8.13
2023-02-06T18:31:26.789Z,8.35
2023-02-06T18:33:54.223Z,6.72
2023-02-06T18:36:20.902Z,6.88
2023-02-06T18:38:47.579Z,7.68
2023-02-06T18:41:37.533Z,7.40
2023-02-06T18:44:05.714Z,7.07
2023-02-06T18:46:32.720Z,6.15
2023-02-06T18:48:59.764Z,7.25
2023-02-06T18:51:26.664Z,6.25
2023-02-06T18:53:53.428Z,7.00
2023-02-06T18:56:20.113Z,7.22
2023-02-06T18:58:46.777Z,7.00
2023-02-06T19:01:20.817Z,7.38
2023-02-06T19:06:21.640Z,8.85
2023-02-06T19:08:48.281Z,10.68
2023-02-06T19:11:14.925Z,18.17
2023-02-06T19:13:41.724Z,9.60
2023-02-06T19:16:13.907Z,11.40
2023-02-06T19:18:42.277Z,12.57
2023-02-06T19:21:11.581Z,9.57
2023-02-06T19:23:39.047Z,7.75
2023-02-06T19:26:13.180Z,10.23
2023-02-06T19:28:40.107Z,7.88
2023-02-06T19:31:07.226Z,10.80
2023-02-06T19:33:35.076Z,6.95
2023-02-06T19:36:15.048Z,13.25
2023-02-06T19:38:42.038Z,6.35
2023-02-06T19:41:13.922Z,7.85
2023-02-06T19:43:41.337Z,5.97
2023-02-06T19:46:10.054Z,6.22
2023-02-06T19:48:36.928Z,5.57
2023-02-06T19:51:08.862Z,5.72
2023-02-06T19:53:36.209Z,6.72
2023-02-06T19:56:03.932Z,5.53
2023-02-06T19:58:32.172Z,4.75
2023-02-06T20:00:59.118Z,4.25
2023-02-06T20:03:26.064Z,5.00
2023-02-06T20:05:52.764Z,4.22
2023-02-06T20:08:19.421Z,4.28
2023-02-06T20:10:46.113Z,4.28
2023-02-06T20:13:12.874Z,4.00
2023-02-06T20:15:39.508Z,4.68
2023-02-06T20:18:06.190Z,4.45
2023-02-06T20:20:36.328Z,4.75
2023-02-06T20:23:03.110Z,4.20
2023-02-06T20:25:30.129Z,3.55
2023-02-06T20:27:56.937Z,3.00
2023-02-06T20:30:24.506Z,3.08
2023-02-06T20:32:51.176Z,3.20
2023-02-06T20:35:17.954Z,3.42
2023-02-06T20:37:44.565Z,3.30
2023-02-06T20:40:11.317Z,3.20
2023-02-06T20:42:42.107Z,3.25
2023-02-06T20:45:08.751Z,3.38
2023-02-06T20:47:35.381Z,2.50
2023-02-06T20:50:02.035Z,3.20
2023-02-06T20:52:29.612Z,2.97
2023-02-06T20:54:56.253Z,3.20
2023-02-06T20:57:23.247Z,4.10
2023-02-06T20:59:49.993Z,3.08
2023-02-06T21:02:16.777Z,3.40
2023-02-06T21:04:43.720Z,3.75
2023-02-06T21:07:10.392Z,3.85
2023-02-06T21:09:37.038Z,4.00
2023-02-06T21:12:03.845Z,4.07
2023-02-06T21:14:30.505Z,4.05
2023-02-06T21:16:57.475Z,3.58
2023-02-06T21:19:26.676Z,3.67
2023-02-06T21:21:53.301Z,3.42
2023-02-06T21:24:19.970Z,3.10
2023-02-06T21:26:46.808Z,3.33
2023-02-06T21:29:13.983Z,4.00
2023-02-06T21:31:40.737Z,3.20
2023-02-06T21:34:17.628Z,3.22
2023-02-06T21:36:44.516Z,4.10
2023-02-06T21:39:14.448Z,3.97
2023-02-06T21:41:41.093Z,3.40
2023-02-06T21:44:07.730Z,3.70
2023-02-06T21:46:34.473Z,3.15
2023-02-06T21:49:01.104Z,3.33
2023-02-06T21:51:27.816Z,3.88
2023-02-06T21:53:54.447Z,3.10
2023-02-06T21:56:25.653Z,3.47
2023-02-06T21:58:52.505Z,3.70
2023-02-06T22:01:26.019Z,3.78
2023-02-06T22:03:52.733Z,3.42
2023-02-06T22:06:20.044Z,3.20
2023-02-06T22:08:48.297Z,3.58
2023-02-06T22:11:16.460Z,2.90
2023-02-06T22:13:43.470Z,3.60
2023-02-06T22:16:10.792Z,3.25
2023-02-06T22:18:37.618Z,3.25
2023-02-06T22:21:14.989Z,3.50
2023-02-06T22:23:41.832Z,3.17
2023-02-06T22:26:09.457Z,3.33
2023-02-06T22:28:36.200Z,4.40
2023-02-06T22:31:08.276Z,4.20
2023-02-06T22:33:35.058Z,4.38
2023-02-06T22:36:09.916Z,4.43
2023-02-06T22:38:36.678Z,4.03
2023-02-06T22:41:07.040Z,3.63
2023-02-06T22:43:35.640Z,3.28
2023-02-06T22:46:02.985Z,3.63
2023-02-06T22:48:29.616Z,3.22
2023-02-06T22:50:56.407Z,3.05
2023-02-06T22:53:29.503Z,2.40
2023-02-06T22:56:19.422Z,2.15
2023-02-06T22:58:46.386Z,2.38
2023-02-06T23:01:13.420Z,2.40
2023-02-06T23:03:40.103Z,2.35
2023-02-06T23:06:08.669Z,2.60
2023-02-06T23:08:35.587Z,3.42
2023-02-06T23:11:02.763Z,2.85
2023-02-06T23:13:29.652Z,2.28
2023-02-06T23:15:56.779Z,2.80
2023-02-06T23:18:24.157Z,2.97
2023-02-06T23:21:08.541Z,3.33
2023-02-06T23:26:01.779Z,3.20
2023-02-06T23:28:28.750Z,2.10
2023-02-06T23:30:55.493Z,2.65
2023-02-06T23:33:22.179Z,2.60
2023-02-06T23:35:48.845Z,4.28
2023-02-06T23:38:15.502Z,3.83
2023-02-06T23:40:42.167Z,3.70
2023-02-06T23:43:09.334Z,3.05
2023-02-06T23:45:36.447Z,1.92
2023-02-06T23:48:03.484Z,2.70
2023-02-06T23:50:30.132Z,2.30
2023-02-06T23:52:56.772Z,2.70
2023-02-06T23:55:27.917Z,2.63
2023-02-06T23:57:54.639Z,3.10
